Time;durP1;ratioP1;P1;durP2;ratioP2;P2;SDS_P1;SDS_P2;PMS_P1;PMS_P2;Temp;Humidity;BMP_temperature;BMP_pressure;BME280_temperature;BME280_humidity;BME280_pressure;Samples;Min_cycle;Max_cycle;Signal;HPM_P1;HPM_P2
2023/07/01 00:01:38;;;;;;;3.60;1.33;;;;;;;16.01;100.00;99002.78;5022397;28;20575;-70
2023/07/01 00:04:05;;;;;;;5.05;1.80;;;;;;;16.06;100.00;99000.59;5021303;28;20464;-71
2023/07/01 00:06:32;;;;;;;3.97;1.63;;;;;;;16.14;100.00;98997.25;5012440;28;20084;-70
2023/07/01 00:08:59;;;;;;;3.95;1.60;;;;;;;16.09;100.00;98989.75;5029099;28;20499;-71
2023/07/01 00:11:25;;;;;;;4.43;1.55;;;;;;;16.17;100.00;98986.44;5027882;28;20415;-70
2023/07/01 00:13:52;;;;;;;4.32;1.60;;;;;;;16.04;100.00;98981.41;5018027;28;20418;-71
2023/07/01 00:16:19;;;;;;;4.15;1.70;;;;;;;16.09;100.00;98981.00;5016372;28;20132;-70
2023/07/01 00:18:46;;;;;;;4.47;1.63;;;;;;;16.08;100.00;98985.44;5016169;28;20045;-71
2023/07/01 00:21:13;;;;;;;3.22;1.33;;;;;;;16.16;100.00;98978.66;5017487;28;20064;-71
2023/07/01 00:23:40;;;;;;;4.18;1.65;;;;;;;16.14;100.00;98982.25;5029010;28;20080;-70
2023/07/01 00:26:07;;;;;;;3.95;1.60;;;;;;;16.12;100.00;98980.72;5017015;28;20475;-71
2023/07/01 00:28:34;;;;;;;2.78;1.30;;;;;;;16.16;100.00;98979.47;5019988;28;20061;-70
2023/07/01 00:31:00;;;;;;;4.13;1.65;;;;;;;16.21;100.00;98982.53;5026803;28;20103;-71
2023/07/01 00:33:27;;;;;;;4.95;2.25;;;;;;;16.30;100.00;98983.53;5028331;28;20049;-71
2023/07/01 00:35:54;;;;;;;4.05;1.60;;;;;;;16.25;100.00;98970.72;5024230;28;20045;-70
2023/07/01 00:38:21;;;;;;;4.90;2.08;;;;;;;16.26;100.00;98972.41;5016675;28;20560;-70
2023/07/01 00:40:47;;;;;;;5.15;1.80;;;;;;;16.21;100.00;98968.50;5029453;28;20081;-71
2023/07/01 00:43:15;;;;;;;3.63;1.50;;;;;;;16.17;100.00;98965.31;5020663;28;20490;-71
2023/07/01 00:45:42;;;;;;;4.45;1.67;;;;;;;16.12;100.00;98964.88;5022866;28;20053;-71
2023/07/01 00:48:18;;;;;;;5.30;1.70;;;;;;;16.13;100.00;98967.41;5029761;28;20041;-71
2023/07/01 00:50:44;;;;;;;3.03;1.38;;;;;;;16.24;100.00;98952.41;5018665;28;20058;-71
2023/07/01 00:53:12;;;;;;;3.38;1.48;;;;;;;16.29;100.00;98958.13;5032292;28;20049;-71
2023/07/01 00:55:39;;;;;;;4.32;1.40;;;;;;;16.26;100.00;98953.09;5018789;28;20061;-69
2023/07/01 00:58:05;;;;;;;4.25;1.70;;;;;;;16.10;100.00;98940.44;5012875;28;20048;-71
2023/07/01 01:00:32;;;;;;;3.90;1.55;;;;;;;16.09;100.00;98944.84;5014036;28;20434;-71
2023/07/01 01:03:25;;;;;;;3.10;1.27;;;;;;;15.98;100.00;98949.44;5023866;28;20107;-71
2023/07/01 01:05:55;;;;;;;4.68;1.73;;;;;;;15.86;100.00;98938.97;5012734;28;20056;-71
2023/07/01 01:08:36;;;;;;;4.32;1.67;;;;;;;15.84;100.00;98934.81;5026482;28;20061;-71
2023/07/01 01:11:05;;;;;;;4.80;1.83;;;;;;;15.82;100.00;98920.94;5018731;28;20045;-70
2023/07/01 01:13:32;;;;;;;3.53;1.42;;;;;;;15.93;100.00;98929.53;5014149;28;20575;-70
2023/07/01 01:16:00;;;;;;;4.05;1.65;;;;;;;15.85;100.00;98925.94;5011906;28;20056;-71
2023/07/01 01:18:31;;;;;;;3.67;1.45;;;;;;;15.91;100.00;98920.94;5016007;28;20064;-72
2023/07/01 01:20:59;;;;;;;3.42;1.40;;;;;;;16.00;100.00;98921.09;5032335;28;20075;-71
2023/07/01 01:23:28;;;;;;;3.15;1.30;;;;;;;16.10;100.00;98928.06;5015302;28;20057;-71
2023/07/01 01:26:09;;;;;;;3.47;1.42;;;;;;;16.06;100.00;98916.13;5027664;28;20156;-71
2023/07/01 01:28:36;;;;;;;2.70;1.10;;;;;;;16.18;100.00;98929.19;5028175;28;20140;-71
2023/07/01 01:31:04;;;;;;;3.67;1.45;;;;;;;16.27;100.00;98933.63;5023787;28;20562;-71
2023/07/01 01:33:31;;;;;;;4.25;1.48;;;;;;;16.16;100.00;98931.94;5027695;28;20408;-71
2023/07/01 01:36:26;;;;;;;2.90;1.35;;;;;;;16.21;100.00;98928.91;5013756;28;20049;-71
2023/07/01 01:38:57;;;;;;;3.08;1.50;;;;;;;16.27;100.00;98930.97;5002998;28;20061;-71
2023/07/01 01:41:36;;;;;;;2.25;1.00;;;;;;;16.15;100.00;98919.75;5019196;28;20133;-71
2023/07/01 01:44:09;;;;;;;3.17;1.40;;;;;;;16.10;100.00;98928.06;5017461;28;20480;-71
2023/07/01 01:46:37;;;;;;;3.08;1.40;;;;;;;16.23;100.00;98924.31;5010437;28;20084;-71
2023/07/01 01:49:10;;;;;;;4.25;1.10;;;;;;;16.19;100.00;98926.41;5011565;28;20060;-71
2023/07/01 01:51:40;;;;;;;3.95;1.50;;;;;;;16.21;100.00;98927.09;5018662;28;20053;-71
2023/07/01 01:54:09;;;;;;;2.70;1.20;;;;;;;16.27;100.00;98928.34;5030359;28;20053;-71
2023/07/01 01:56:37;;;;;;;3.88;1.50;;;;;;;16.21;100.00;98920.97;5025971;28;20045;-71
2023/07/01 01:59:04;;;;;;;3.80;1.38;;;;;;;16.19;100.00;98917.66;5012889;28;20133;-71
2023/07/01 02:01:31;;;;;;;2.80;1.38;;;;;;;16.20;100.00;98925.44;5029283;28;20138;-70
2023/07/01 02:03:58;;;;;;;5.03;1.33;;;;;;;16.21;100.00;98928.91;5025279;28;20057;-71
2023/07/01 02:06:25;;;;;;;3.92;1.45;;;;;;;16.21;100.00;98927.09;5011670;28;20058;-70
2023/07/01 02:08:51;;;;;;;3.60;1.25;;;;;;;16.15;100.00;98922.38;5022585;28;20050;-71
2023/07/01 02:11:18;;;;;;;3.10;1.20;;;;;;;16.07;100.00;98925.69;5011698;28;20096;-71
2023/07/01 02:13:45;;;;;;;2.72;1.33;;;;;;;16.06;100.00;98923.19;5011917;28;20046;-71
2023/07/01 02:16:11;;;;;;;2.42;1.27;;;;;;;16.11;100.00;98923.59;5026533;28;20045;-71
2023/07/01 02:18:38;;;;;;;2.33;1.20;;;;;;;16.20;100.00;98919.31;5030071;28;20099;-72
2023/07/01 02:21:06;;;;;;;1.88;1.10;;;;;;;16.28;100.00;98917.66;5019924;28;20419;-71
2023/07/01 02:23:33;;;;;;;2.72;1.20;;;;;;;16.27;100.00;98918.63;5011909;28;20058;-71
2023/07/01 02:26:00;;;;;;;1.02;0.82;;;;;;;16.30;100.00;98912.22;5016111;28;20062;-71
2023/07/01 02:28:27;;;;;;;1.80;0.90;;;;;;;16.25;100.00;98901.25;5026492;28;20045;-70
2023/07/01 02:30:54;;;;;;;2.17;1.00;;;;;;;16.29;100.00;98897.38;5030114;28;20041;-71
2023/07/01 02:33:21;;;;;;;2.22;0.88;;;;;;;16.29;100.00;98897.38;5031363;28;20539;-70
2023/07/01 02:35:47;;;;;;;1.85;1.00;;;;;;;16.27;100.00;98910.72;5026157;28;20060;-71
2023/07/01 02:38:14;;;;;;;2.90;1.17;;;;;;;16.28;100.00;98906.25;5020268;28;20052;-71
2023/07/01 02:40:41;;;;;;;2.22;0.90;;;;;;;16.23;100.00;98897.91;5012183;28;20447;-71
2023/07/01 02:43:08;;;;;;;2.20;0.90;;;;;;;16.22;100.00;98902.38;5031096;28;20479;-69
2023/07/01 02:45:35;;;;;;;1.42;0.90;;;;;;;16.31;100.00;98892.78;5019034;28;20140;-71
2023/07/01 02:48:01;;;;;;;1.10;0.80;;;;;;;16.33;100.00;98899.56;5019859;28;20056;-71
2023/07/01 02:50:29;;;;;;;2.55;1.10;;;;;;;16.26;100.00;98902.94;5035233;28;20053;-71
2023/07/01 02:52:56;;;;;;;1.77;1.00;;;;;;;16.36;100.00;98897.63;5038352;28;20691;-71
2023/07/01 02:55:28;;;;;;;3.10;1.00;;;;;;;16.29;100.00;98897.38;5031714;28;20049;-71
2023/07/01 02:57:55;;;;;;;1.00;0.88;;;;;;;16.19;100.00;98884.16;5030073;28;20046;-71
2023/07/01 03:00:22;;;;;;;1.10;0.80;;;;;;;16.30;100.00;98893.75;5032618;28;20440;-70
2023/07/01 03:02:50;;;;;;;1.33;0.80;;;;;;;16.26;100.00;98893.19;5030292;28;20461;-71
2023/07/01 03:05:21;;;;;;;2.20;1.05;;;;;;;16.31;100.00;98893.59;5032918;28;20095;-71
2023/07/01 03:07:48;;;;;;;1.00;0.80;;;;;;;16.24;100.00;98891.66;5038521;28;20144;-71
2023/07/01 03:10:15;;;;;;;1.92;0.90;;;;;;;16.26;100.00;98893.19;5048188;28;20057;-72
2023/07/01 03:12:42;;;;;;;1.30;0.70;;;;;;;16.27;100.00;98897.50;5050279;28;20056;-71
2023/07/01 03:15:09;;;;;;;1.10;0.88;;;;;;;16.23;100.00;98895.28;5026255;28;20054;-71
2023/07/01 03:17:35;;;;;;;2.53;1.00;;;;;;;16.25;100.00;98891.50;5047772;28;20045;-71
2023/07/01 03:20:04;;;;;;;1.83;1.00;;;;;;;16.24;100.00;98874.00;5024179;28;20049;-71
2023/07/01 03:22:31;;;;;;;1.02;0.80;;;;;;;16.25;100.00;98880.94;5050246;28;20147;-71
2023/07/01 03:24:58;;;;;;;1.92;0.98;;;;;;;16.31;100.00;98882.22;5034020;28;20702;-71
2023/07/01 03:27:24;;;;;;;2.50;0.95;;;;;;;16.28;100.00;98882.50;5033858;28;20044;-71
2023/07/01 03:29:52;;;;;;;1.33;0.85;;;;;;;16.17;100.00;98882.63;5047144;28;20072;-71
2023/07/01 03:32:19;;;;;;;1.92;0.93;;;;;;;16.19;100.00;98875.41;5050294;28;20068;-71
2023/07/01 03:34:47;;;;;;;4.00;1.08;;;;;;;16.26;100.00;98873.88;5037886;28;20055;-71
2023/07/01 03:37:14;;;;;;;1.17;0.80;;;;;;;16.19;100.00;98873.59;5031804;28;20366;-71
2023/07/01 03:39:41;;;;;;;1.75;0.98;;;;;;;16.22;100.00;98861.91;5030360;28;20060;-71
2023/07/01 03:42:07;;;;;;;1.75;0.90;;;;;;;16.28;100.00;98867.47;5043321;28;20139;-71
2023/07/01 03:44:34;;;;;;;1.60;0.98;;;;;;;16.30;100.00;98865.53;5032770;28;20638;-70
2023/07/01 03:47:01;;;;;;;1.50;0.80;;;;;;;16.31;100.00;98861.09;5011811;28;20060;-71
2023/07/01 03:49:27;;;;;;;1.90;1.00;;;;;;;16.27;100.00;98867.59;5041641;28;20046;-70
2023/07/01 03:51:54;;;;;;;1.65;0.88;;;;;;;16.29;100.00;98863.03;5038963;28;20449;-71
2023/07/01 03:54:21;;;;;;;1.75;0.90;;;;;;;16.32;100.00;98862.75;5045894;28;20124;-71
2023/07/01 03:56:47;;;;;;;1.98;0.90;;;;;;;16.30;100.00;98852.31;5041833;28;20475;-71
2023/07/01 03:59:14;;;;;;;1.90;0.82;;;;;;;16.41;100.00;98853.16;5028118;28;20144;-71
2023/07/01 04:01:41;;;;;;;1.38;0.82;;;;;;;16.35;100.00;98859.81;5037662;28;20060;-70
2023/07/01 04:04:08;;;;;;;2.03;0.90;;;;;;;16.44;100.00;98866.06;5032747;28;20107;-71
2023/07/01 04:06:35;;;;;;;1.77;0.90;;;;;;;16.41;100.00;98861.91;5028494;28;20088;-71
2023/07/01 04:09:02;;;;;;;2.90;1.10;;;;;;;16.36;100.00;98860.66;5039888;28;20132;-71
2023/07/01 04:11:30;;;;;;;4.03;1.00;;;;;;;16.34;100.00;98871.34;5051412;28;20063;-71
2023/07/01 04:13:58;;;;;;;1.83;0.90;;;;;;;16.18;100.00;98839.41;5048549;28;20064;-70
2023/07/01 04:16:24;;;;;;;1.88;0.90;;;;;;;16.37;100.00;98864.97;5045852;28;20063;-70
2023/07/01 04:18:51;;;;;;;2.38;1.00;;;;;;;16.39;100.00;98865.66;5040693;28;20445;-71
2023/07/01 04:21:18;;;;;;;3.20;1.10;;;;;;;16.29;100.00;98866.50;5051989;28;20059;-70
2023/07/01 04:23:44;;;;;;;2.55;1.20;;;;;;;16.17;100.00;98870.25;5039736;28;20045;-71
2023/07/01 04:26:11;;;;;;;3.00;1.30;;;;;;;16.25;100.00;98857.19;5027633;28;20064;-71
2023/07/01 04:28:38;;;;;;;3.28;1.40;;;;;;;16.29;100.00;98865.69;5032573;28;20505;-70
2023/07/01 04:31:05;;;;;;;2.55;1.20;;;;;;;16.36;100.00;98865.94;5038742;28;20085;-71
2023/07/01 04:33:31;;;;;;;2.50;1.02;;;;;;;16.38;100.00;98867.47;5047257;28;20049;-70
2023/07/01 04:35:58;;;;;;;3.22;1.20;;;;;;;16.40;100.00;98870.81;5031224;28;20057;-71
2023/07/01 04:38:25;;;;;;;2.17;1.10;;;;;;;16.40;100.00;98867.34;5047086;28;20049;-71
2023/07/01 04:40:53;;;;;;;3.80;1.30;;;;;;;16.34;100.00;98871.34;5039646;28;20402;-71
2023/07/01 04:43:21;;;;;;;2.58;1.20;;;;;;;16.43;100.00;98867.91;5042299;28;20059;-71
2023/07/01 04:45:47;;;;;;;2.70;1.00;;;;;;;16.39;100.00;98860.38;5020162;28;20434;-71
2023/07/01 04:48:14;;;;;;;2.53;1.10;;;;;;;16.48;100.00;98867.44;5029826;28;20041;-70
2023/07/01 04:50:41;;;;;;;2.85;1.20;;;;;;;16.54;100.00;98868.69;5028663;28;20140;-71
2023/07/01 04:53:08;;;;;;;1.70;0.90;;;;;;;16.44;100.00;98861.63;5032717;28;20063;-71
2023/07/01 04:55:34;;;;;;;2.05;0.98;;;;;;;16.47;100.00;98863.16;5031587;28;20133;-71
2023/07/01 04:58:01;;;;;;;2.03;1.10;;;;;;;16.57;100.00;98871.06;5041296;28;20048;-71
2023/07/01 05:00:29;;;;;;;2.65;1.00;;;;;;;16.60;100.00;98868.97;5033484;28;20126;-71
2023/07/01 05:02:55;;;;;;;2.03;0.90;;;;;;;16.61;100.00;98878.56;5038787;28;20132;-71
2023/07/01 05:05:23;;;;;;;1.88;0.90;;;;;;;16.61;100.00;98870.66;5038984;28;20051;-71
2023/07/01 05:07:50;;;;;;;2.35;1.10;;;;;;;16.66;100.00;98864.91;5031366;28;20053;-71
2023/07/01 05:10:17;;;;;;;2.78;1.10;;;;;;;16.67;100.00;98872.69;5036028;28;20083;-71
2023/07/01 05:12:44;;;;;;;1.77;1.00;;;;;;;16.67;100.00;98863.97;5045702;28;20060;-72
2023/07/01 05:15:11;;;;;;;2.88;1.15;;;;;;;16.59;100.00;98847.97;5034686;28;20586;-71
2023/07/01 05:17:37;;;;;;;3.95;1.33;;;;;;;16.88;100.00;98869.09;5027822;28;20052;-71
2023/07/01 05:20:05;;;;;;;5.55;1.30;;;;;;;16.93;100.00;98860.69;5044616;28;20692;-70
2023/07/01 05:22:32;;;;;;;2.58;1.02;;;;;;;16.96;100.00;98865.72;5051067;28;20056;-70
2023/07/01 05:24:58;;;;;;;3.17;1.20;;;;;;;17.03;100.00;98869.44;5042327;28;20729;-71
2023/07/01 05:27:25;;;;;;;1.42;0.90;;;;;;;17.07;100.00;98873.47;5051452;28;20083;-71
2023/07/01 05:29:52;;;;;;;2.28;1.08;;;;;;;17.05;100.00;98859.53;5048712;28;20081;-70
2023/07/01 05:32:19;;;;;;;1.48;0.82;;;;;;;17.08;100.00;98868.03;5046998;28;20128;-70
2023/07/01 05:34:46;;;;;;;2.03;1.00;;;;;;;17.15;100.00;98864.81;5032400;28;20526;-71
2023/07/01 05:37:13;;;;;;;3.90;1.15;;;;;;;16.96;100.00;98853.31;5021798;28;20041;-71
2023/07/01 05:39:40;;;;;;;4.22;1.00;;;;;;;17.04;100.00;98858.72;5042085;28;20053;-71
2023/07/01 05:42:07;;;;;;;2.35;1.00;;;;;;;17.13;100.00;98854.38;5034542;28;20533;-71
2023/07/01 05:44:33;;;;;;;2.83;1.10;;;;;;;17.12;100.00;98851.88;5045320;28;20395;-71
2023/07/01 05:47:00;;;;;;;1.88;0.88;;;;;;;17.22;100.00;98855.31;5046002;28;20417;-71
2023/07/01 05:49:27;;;;;;;1.50;0.80;;;;;;;17.26;100.00;98851.41;5044376;28;20049;-71
2023/07/01 05:51:53;;;;;;;1.88;0.93;;;;;;;17.44;100.00;98851.44;5052099;28;20045;-71
2023/07/01 05:54:20;;;;;;;2.50;1.00;;;;;;;17.55;100.00;98856.53;5030863;28;20050;-71
2023/07/01 05:56:47;;;;;;;2.28;1.05;;;;;;;17.39;100.00;98845.78;5038381;28;20406;-71
2023/07/01 05:59:14;;;;;;;1.20;0.82;;;;;;;17.29;100.00;98852.94;5040127;28;20076;-71
2023/07/01 06:01:40;;;;;;;2.75;0.80;;;;;;;17.33;100.00;98841.06;5045540;28;20075;-71
2023/07/01 06:04:07;;;;;;;2.28;1.10;;;;;;;17.38;100.00;98857.34;5050177;28;20046;-71
2023/07/01 06:06:34;;;;;;;1.55;0.90;;;;;;;17.37;100.00;98850.34;5043368;28;20053;-71
2023/07/01 06:09:01;;;;;;;1.77;1.00;;;;;;;17.43;100.00;98839.22;5034688;28;20042;-72
2023/07/01 06:11:27;;;;;;;1.60;1.00;;;;;;;17.67;100.00;98827.22;5043142;28;20123;-71
2023/07/01 06:13:54;;;;;;;2.50;1.10;;;;;;;17.80;100.00;98827.69;5029828;28;20137;-71
2023/07/01 06:16:21;;;;;;;3.08;0.95;;;;;;;17.90;100.00;98840.88;5027767;28;20053;-71
2023/07/01 06:18:48;;;;;;;1.75;0.93;;;;;;;17.54;100.00;98844.28;5021912;28;20099;-69
2023/07/01 06:21:14;;;;;;;3.15;1.00;;;;;;;17.50;100.00;98840.28;5017049;28;20129;-71
2023/07/01 06:23:41;;;;;;;4.50;1.13;;;;;;;17.71;100.00;98841.84;5025412;28;20081;-71
2023/07/01 06:26:08;;;;;;;1.98;1.02;;;;;;;17.55;100.00;98819.50;5039029;28;20124;-71
2023/07/01 06:28:35;;;;;;;4.80;1.15;;;;;;;18.23;100.00;98830.59;5027200;28;20064;-71
2023/07/01 06:31:01;;;;;;;2.78;1.05;;;;;;;18.49;100.00;98842.03;5025613;28;20065;-71
2023/07/01 06:33:28;;;;;;;3.63;0.98;;;;;;;18.40;100.00;98846.44;5017723;28;20058;-71
2023/07/01 06:35:55;;;;;;;1.73;0.90;;;;;;;18.26;100.00;98835.59;5020950;28;20140;-71
2023/07/01 06:38:22;;;;;;;2.90;1.00;;;;;;;18.34;100.00;98840.94;5015979;28;20052;-71
2023/07/01 06:40:49;;;;;;;1.85;0.80;;;;;;;18.48;100.00;98842.19;5026222;28;20049;-71
2023/07/01 06:43:16;;;;;;;1.40;0.70;;;;;;;18.69;100.00;98844.50;5023943;28;20128;-71
2023/07/01 06:45:43;;;;;;;0.70;0.70;;;;;;;18.96;100.00;98852.31;5017762;28;20063;-71
2023/07/01 06:48:10;;;;;;;0.77;0.65;;;;;;;18.75;100.00;98842.06;5022994;28;20376;-72
2023/07/01 06:50:37;;;;;;;1.15;0.70;;;;;;;18.76;100.00;98846.34;5025417;28;20060;-71
2023/07/01 06:53:04;;;;;;;2.80;0.75;;;;;;;18.82;100.00;98826.38;5030831;28;20406;-71
2023/07/01 06:55:30;;;;;;;1.65;0.70;;;;;;;18.85;100.00;98841.16;5038471;28;20057;-71
2023/07/01 06:58:03;;;;;;;0.80;0.68;;;;;;;18.71;100.00;98856.59;5037012;28;20406;-71
2023/07/01 07:00:30;;;;;;;;;;;;;;;18.72;100.00;98847.66;5019432;28;20061;-71
2023/07/01 07:02:57;;;;;;;0.93;0.60;;;;;;;18.81;100.00;98843.25;5014469;28;19925;-71
2023/07/01 07:05:24;;;;;;;1.05;0.60;;;;;;;18.72;100.00;98841.53;5013505;28;20384;-71
2023/07/01 07:07:51;;;;;;;0.70;0.60;;;;;;;18.81;100.00;98851.19;5022856;28;20487;-72
2023/07/01 07:10:18;;;;;;;0.85;0.52;;;;;;;18.85;100.00;98849.09;5028370;28;20050;-72
2023/07/01 07:12:45;;;;;;;0.90;0.50;;;;;;;18.75;100.00;98847.34;5025666;28;20120;-71
2023/07/01 07:15:11;;;;;;;1.08;0.70;;;;;;;18.90;100.00;98828.25;5027034;28;20060;-72
2023/07/01 07:17:38;;;;;;;0.50;0.50;;;;;;;18.89;100.00;98842.47;5022693;28;20330;-71
2023/07/01 07:20:06;;;;;;;0.50;0.50;;;;;;;18.95;100.00;98842.69;5020416;28;20087;-71
2023/07/01 07:22:33;;;;;;;0.50;0.50;;;;;;;18.95;100.00;98840.03;5017196;28;20059;-72
2023/07/01 07:24:59;;;;;;;1.85;0.50;;;;;;;18.95;100.00;98840.03;5018093;28;20056;-72
2023/07/01 07:27:26;;;;;;;4.03;0.52;;;;;;;18.91;100.00;98844.00;5020217;28;20505;-72
2023/07/01 07:29:53;;;;;;;0.50;0.50;;;;;;;19.01;100.00;98832.44;5017967;28;20076;-71
2023/07/01 07:32:19;;;;;;;0.50;0.50;;;;;;;19.02;100.00;98839.44;5021594;28;20050;-71
2023/07/01 07:34:46;;;;;;;3.97;0.57;;;;;;;19.05;100.00;98845.25;5018265;28;20049;-71
2023/07/01 07:37:13;;;;;;;0.50;0.50;;;;;;;18.91;100.00;98841.34;5021676;28;20045;-71
2023/07/01 07:39:40;;;;;;;1.38;0.60;;;;;;;18.90;100.00;98841.50;5027362;28;20052;-71
2023/07/01 07:42:07;;;;;;;0.63;0.60;;;;;;;19.04;100.00;98838.25;5023861;28;20507;-71
2023/07/01 07:44:35;;;;;;;0.50;0.50;;;;;;;19.03;100.00;98844.53;5015968;28;20485;-71
2023/07/01 07:47:02;;;;;;;0.47;0.47;;;;;;;19.15;100.00;98845.94;5028371;28;20049;-71
2023/07/01 07:49:29;;;;;;;0.88;0.50;;;;;;;19.19;100.00;98824.41;5026935;28;20111;-71
2023/07/01 07:51:55;;;;;;;0.50;0.50;;;;;;;19.09;100.00;98841.28;5022008;28;20045;-71
2023/07/01 07:54:22;;;;;;;0.40;0.40;;;;;;;19.09;100.00;98838.63;5016649;28;20545;-71
2023/07/01 07:56:49;;;;;;;0.43;0.43;;;;;;;19.33;100.00;98826.44;5019438;28;20084;-71
2023/07/01 07:59:16;;;;;;;0.40;0.40;;;;;;;19.34;100.00;98831.59;5031046;28;20053;-71
2023/07/01 08:01:42;;;;;;;0.52;0.50;;;;;;;19.50;100.00;98828.16;5030219;28;20092;-71
2023/07/01 08:04:09;;;;;;;0.43;0.43;;;;;;;19.42;100.00;98825.47;5029752;28;20100;-71
2023/07/01 08:06:36;;;;;;;0.40;0.40;;;;;;;19.28;100.00;98829.59;5028296;28;20049;-71
2023/07/01 08:09:03;;;;;;;0.40;0.40;;;;;;;19.15;100.00;98824.72;5024834;28;20042;-71
2023/07/01 08:11:29;;;;;;;0.82;0.50;;;;;;;19.24;100.00;98828.22;5022330;28;20057;-70
2023/07/01 08:13:56;;;;;;;0.47;0.43;;;;;;;19.25;100.00;98827.25;5022082;28;20476;-71
2023/07/01 08:16:23;;;;;;;0.40;0.40;;;;;;;18.95;100.00;98823.31;5021179;28;20100;-71
2023/07/01 08:18:50;;;;;;;0.73;0.50;;;;;;;18.82;100.00;98814.94;5026192;28;20052;-70
2023/07/01 08:21:16;;;;;;;0.50;0.50;;;;;;;19.04;100.00;98830.31;5026195;28;20059;-71
2023/07/01 08:23:43;;;;;;;0.52;0.50;;;;;;;19.36;100.00;98820.81;5029700;28;20099;-71
2023/07/01 08:26:10;;;;;;;0.40;0.40;;;;;;;19.66;100.00;98827.38;5026939;28;20568;-71
2023/07/01 08:28:37;;;;;;;0.47;0.47;;;;;;;19.67;100.00;98822.88;5021787;28;20060;-71
2023/07/01 08:31:04;;;;;;;0.45;0.45;;;;;;;19.66;100.00;98826.53;5039045;28;20075;-71
2023/07/01 08:33:32;;;;;;;0.40;0.40;;;;;;;20.27;100.00;98822.66;5024775;28;20420;-71
2023/07/01 08:35:59;;;;;;;0.70;0.50;;;;;;;20.10;100.00;98823.66;5018742;28;20060;-71
2023/07/01 08:38:28;;;;;;;0.40;0.40;;;;;;;20.30;100.00;98821.47;5015226;28;20085;-71
2023/07/01 08:41:02;;;;;;;0.40;0.40;;;;;;;20.21;100.00;98822.47;5023884;28;20080;-71
2023/07/01 08:43:30;;;;;;;0.95;0.45;;;;;;;20.73;100.00;98822.09;5041940;28;20551;-71
2023/07/01 08:46:03;;;;;;;0.75;0.50;;;;;;;20.88;100.00;98821.44;5028406;28;20057;-72
2023/07/01 08:48:34;;;;;;;0.40;0.40;;;;;;;20.53;100.00;98821.63;5022487;28;20050;-72
2023/07/01 08:51:11;;;;;;;0.40;0.40;;;;;;;20.24;100.00;98817.66;5025227;28;20125;-71
2023/07/01 08:53:41;;;;;;;0.40;0.40;;;;;;;20.64;100.00;98807.19;5033183;28;20132;-71
2023/07/01 08:56:08;;;;;;;0.40;0.40;;;;;;;21.07;100.00;98821.03;5037753;28;20488;-71
2023/07/01 08:58:35;;;;;;;0.40;0.40;;;;;;;20.97;100.00;98813.25;5028148;28;20052;-72
2023/07/01 09:01:03;;;;;;;0.90;0.60;;;;;;;21.30;100.00;98823.78;5029537;28;20111;-71
2023/07/01 09:03:35;;;;;;;0.52;0.50;;;;;;;21.38;100.00;98828.22;5031026;28;20140;-72
2023/07/01 09:06:05;;;;;;;0.57;0.40;;;;;;;21.10;100.00;98820.66;5016420;28;20522;-72
2023/07/01 09:08:38;;;;;;;0.40;0.40;;;;;;;21.02;100.00;98828.69;5031878;28;20495;-71
2023/07/01 09:11:09;;;;;;;0.47;0.47;;;;;;;20.78;100.00;98829.59;5028048;28;20624;-71
2023/07/01 09:13:36;;;;;;;2.58;0.47;;;;;;;20.88;100.00;98827.56;5025612;28;20132;-71
2023/07/01 09:16:03;;;;;;;1.60;0.50;;;;;;;20.66;100.00;98826.44;5024083;28;20088;-72
2023/07/01 09:18:30;;;;;;;0.95;0.50;;;;;;;21.13;100.00;98812.34;5026832;28;20049;-72
2023/07/01 09:20:58;;;;;;;5.00;0.75;;;;;;;21.13;100.00;98822.16;5030044;28;20064;-71
2023/07/01 09:23:29;;;;;;;2.17;0.50;;;;;;;21.12;100.00;98823.16;5027530;28;20057;-71
2023/07/01 09:26:17;;;;;;;0.40;0.40;;;;;;;20.89;100.00;98828.38;5027507;28;20077;-71
2023/07/01 09:28:46;;;;;;;0.85;0.40;;;;;;;21.07;100.00;98818.38;5030263;28;20083;-71
2023/07/01 09:31:16;;;;;;;0.93;0.47;;;;;;;21.19;100.00;98806.31;5030640;28;20055;-71
2023/07/01 09:34:16;;;;;;;0.40;0.40;;;;;;;21.09;100.00;98818.19;5031855;28;20388;-71
2023/07/01 09:36:44;;;;;;;1.02;0.68;;;;;;;20.99;100.00;98813.88;4983659;28;20046;-71
2023/07/01 09:39:10;;;;;;;1.33;0.60;;;;;;;21.13;100.00;98800.88;5031741;28;20050;-71
2023/07/01 09:41:37;;;;;;;2.13;0.88;;;;;;;21.34;100.00;98818.94;5031008;28;20049;-71
2023/07/01 09:44:16;;;;;;;2.50;0.95;;;;;;;21.20;100.00;98817.81;5030495;28;20077;-71
2023/07/01 09:46:46;;;;;;;1.38;0.70;;;;;;;20.95;100.00;98812.59;5014100;28;20145;-72
2023/07/01 09:49:13;;;;;;;1.83;0.65;;;;;;;21.05;100.00;98813.22;5014270;28;20084;-71
2023/07/01 09:51:48;;;;;;;1.73;0.65;;;;;;;21.84;100.00;98798.19;5027873;28;20252;-71
2023/07/01 09:54:26;;;;;;;3.20;0.80;;;;;;;21.90;100.00;98798.31;5024963;28;20049;-69
2023/07/01 09:56:54;;;;;;;1.13;0.60;;;;;;;22.46;100.00;98799.84;5023681;28;20054;-70
2023/07/01 09:59:21;;;;;;;1.95;0.60;;;;;;;22.86;100.00;98792.41;5024769;28;20056;-70
2023/07/01 10:01:50;;;;;;;0.73;0.47;;;;;;;23.01;100.00;98782.56;5035272;28;20084;-70
2023/07/01 10:04:25;;;;;;;1.23;0.60;;;;;;;23.18;100.00;98782.41;5035232;28;20103;-71
2023/07/01 10:06:53;;;;;;;0.82;0.52;;;;;;;23.05;100.00;98793.75;5015069;28;20418;-70
2023/07/01 10:09:23;;;;;;;3.10;0.93;;;;;;;23.12;100.00;98778.63;5029925;28;20083;-70
2023/07/01 10:11:55;;;;;;;3.65;1.05;;;;;;;23.22;100.00;98781.03;5029256;28;20487;-70
2023/07/01 10:14:25;;;;;;;3.78;0.88;;;;;;;23.72;100.00;98765.13;5027570;28;20060;-70
2023/07/01 10:16:52;;;;;;;1.02;0.60;;;;;;;22.98;100.00;98756.25;5029474;28;20311;-70
2023/07/01 10:19:29;;;;;;;2.05;0.70;;;;;;;23.17;100.00;98757.56;5027208;28;20049;-70
2023/07/01 10:22:18;;;;;;;2.33;0.80;;;;;;;23.24;100.00;98762.97;5029311;28;20046;-71
2023/07/01 10:24:45;;;;;;;1.00;0.65;;;;;;;23.27;100.00;98752.75;5024210;28;20085;-71
2023/07/01 10:27:12;;;;;;;2.00;0.70;;;;;;;23.09;100.00;98755.81;5029174;28;20096;-70
2023/07/01 10:29:53;;;;;;;1.38;0.68;;;;;;;23.00;100.00;98764.06;5030407;28;20776;-70
2023/07/01 10:32:26;;;;;;;1.80;0.68;;;;;;;23.08;100.00;98764.84;5030731;28;20045;-71
2023/07/01 10:34:53;;;;;;;;;;;;;;;23.10;100.00;98770.00;5017783;28;20050;-71
2023/07/01 10:37:25;;;;;;;0.50;0.50;;;;;;;22.66;100.00;98768.97;5012101;28;20252;-71
2023/07/01 10:39:57;;;;;;;1.77;0.60;;;;;;;22.11;100.00;98762.97;5019436;28;20060;-71
2023/07/01 10:42:34;;;;;;;2.15;0.80;;;;;;;21.45;100.00;98767.94;5024765;28;20049;-71
2023/07/01 10:45:10;;;;;;;3.90;1.00;;;;;;;21.09;100.00;98783.59;5018881;28;20648;-71
2023/07/01 10:47:38;;;;;;;2.17;0.80;;;;;;;20.89;100.00;98761.91;5024647;28;20049;-70
2023/07/01 10:50:09;;;;;;;2.25;0.80;;;;;;;21.04;100.00;98779.63;5027448;28;20049;-70
2023/07/01 10:53:00;;;;;;;2.17;0.95;;;;;;;21.00;100.00;98774.81;5019698;28;20722;-70
2023/07/01 10:55:44;;;;;;;2.28;0.80;;;;;;;21.08;100.00;98761.47;5020820;28;20396;-71
2023/07/01 10:58:26;;;;;;;2.00;0.70;;;;;;;21.29;100.00;98774.19;5025746;28;20051;-72
2023/07/01 11:00:54;;;;;;;2.35;0.75;;;;;;;21.26;100.00;98781.69;5025152;28;20041;-71
2023/07/01 11:03:36;;;;;;;2.20;0.80;;;;;;;21.47;100.00;98794.44;5024129;28;20068;-71
2023/07/01 11:06:06;;;;;;;8.37;1.20;;;;;;;21.27;100.00;98836.59;5022029;28;20349;-71
2023/07/01 11:08:43;;;;;;;4.68;1.30;;;;;;;19.86;100.00;98827.94;5027701;28;20054;-70
2023/07/01 11:11:10;;;;;;;3.95;1.17;;;;;;;19.51;100.00;98815.72;5027198;28;20045;-70
2023/07/01 11:13:37;;;;;;;8.13;2.10;;;;;;;19.23;100.00;98801.84;5026246;28;20643;-70
2023/07/01 11:16:09;;;;;;;7.55;2.08;;;;;;;19.10;100.00;98808.44;5019679;28;20045;-70
2023/07/01 11:18:45;;;;;;;5.20;1.85;;;;;;;19.34;100.00;98806.88;5020091;28;20562;-70
2023/07/01 11:21:19;;;;;;;5.50;1.80;;;;;;;19.37;100.00;98806.56;5017778;28;20053;-71
2023/07/01 11:23:56;;;;;;;6.00;1.70;;;;;;;19.47;100.00;98809.06;5025362;28;20128;-71
2023/07/01 11:26:28;;;;;;;9.00;2.17;;;;;;;19.29;100.00;98811.84;5019853;28;20133;-69
2023/07/01 11:28:55;;;;;;;8.50;2.53;;;;;;;19.08;100.00;98799.81;5019896;28;20131;-69
2023/07/01 11:31:24;;;;;;;5.82;1.90;;;;;;;19.03;100.00;98777.41;5033505;28;20049;-70
2023/07/01 11:33:53;;;;;;;7.75;2.25;;;;;;;19.20;100.00;98788.94;5034026;28;20045;-71